sensor_id;sensor_type;location;lat;lon;timestamp;pressure;altitude;pressure_sealevel;temperature;humidity
66887;BME280;67239;51.680;5.976;2023-07-28T00:01:11;100350.78;;;17.59;100.00
66887;BME280;67239;51.680;5.976;2023-07-28T00:03:38;100350.78;;;17.59;100.00
66887;BME280;67239;51.680;5.976;2023-07-28T00:06:05;100347.25;;;17.59;100.00
66887;BME280;67239;51.680;5.976;2023-07-28T00:08:32;100341.81;;;17.60;100.00
66887;BME280;67239;51.680;5.976;2023-07-28T00:10:59;100343.66;;;17.60;100.00
66887;BME280;67239;51.680;5.976;2023-07-28T00:13:26;100338.31;;;17.60;100.00
66887;BME280;67239;51.680;5.976;2023-07-28T00:15:53;100339.34;;;17.57;100.00
66887;BME280;67239;51.680;5.976;2023-07-28T00:18:20;100337.44;;;17.59;100.00
66887;BME280;67239;51.680;5.976;2023-07-28T00:20:48;100336.50;;;17.60;100.00
66887;BME280;67239;51.680;5.976;2023-07-28T00:23:16;100334.66;;;17.61;100.00
66887;BME280;67239;51.680;5.976;2023-07-28T00:25:43;100334.66;;;17.61;100.00
66887;BME280;67239;51.680;5.976;2023-07-28T00:28:10;100333.81;;;17.60;100.00
66887;BME280;67239;51.680;5.976;2023-07-28T00:30:37;100339.03;;;17.62;100.00
66887;BME280;67239;51.680;5.976;2023-07-28T00:33:04;100335.66;;;17.60;100.00
66887;BME280;67239;51.680;5.976;2023-07-28T00:35:32;100332.00;;;17.61;100.00
66887;BME280;67239;51.680;5.976;2023-07-28T00:37:59;100332.00;;;17.61;100.00
66887;BME280;67239;51.680;5.976;2023-07-28T00:40:26;100333.72;;;17.62;100.00
66887;BME280;67239;51.680;5.976;2023-07-28T00:42:54;100342.66;;;17.61;100.00
66887;BME280;67239;51.680;5.976;2023-07-28T00:45:21;100340.75;;;17.63;100.00
66887;BME280;67239;51.680;5.976;2023-07-28T00:47:49;100344.28;;;17.63;100.00
66887;BME280;67239;51.680;5.976;2023-07-28T00:50:16;100343.34;;;17.64;100.00
66887;BME280;67239;51.680;5.976;2023-07-28T00:52:44;100342.47;;;17.64;100.00
66887;BME280;67239;51.680;5.976;2023-07-28T00:55:13;100344.16;;;17.65;100.00
66887;BME280;67239;51.680;5.976;2023-07-28T00:57:40;100338.97;;;17.63;100.00
66887;BME280;67239;51.680;5.976;2023-07-28T01:00:08;100346.00;;;17.64;100.00
66887;BME280;67239;51.680;5.976;2023-07-28T01:02:36;100342.34;;;17.65;100.00
66887;BME280;67239;51.680;5.976;2023-07-28T01:05:04;100352.16;;;17.65;100.00
66887;BME280;67239;51.680;5.976;2023-07-28T01:07:59;100351.22;;;17.66;100.00
66887;BME280;67239;51.680;5.976;2023-07-28T01:10:32;100362.00;;;17.64;100.00
66887;BME280;67239;51.680;5.976;2023-07-28T01:13:00;100359.22;;;17.66;100.00
66887;BME280;67239;51.680;5.976;2023-07-28T01:15:27;100355.47;;;17.68;100.00
66887;BME280;67239;51.680;5.976;2023-07-28T01:17:54;100353.69;;;17.69;100.00
66887;BME280;67239;51.680;5.976;2023-07-28T01:20:24;100359.84;;;17.69;100.00
66887;BME280;67239;51.680;5.976;2023-07-28T01:23:18;100356.22;;;17.70;100.00
66887;BME280;67239;51.680;5.976;2023-07-28T01:26:05;100357.81;;;17.73;100.00
66887;BME280;67239;51.680;5.976;2023-07-28T01:28:36;100356.97;;;17.73;100.00
66887;BME280;67239;51.680;5.976;2023-07-28T01:31:07;100361.44;;;17.72;100.00
66887;BME280;67239;51.680;5.976;2023-07-28T01:33:35;100356.22;;;17.70;100.00
66887;BME280;67239;51.680;5.976;2023-07-28T01:36:03;100358.91;;;17.70;100.00
66887;BME280;67239;51.680;5.976;2023-07-28T01:38:30;100355.38;;;17.70;100.00
66887;BME280;67239;51.680;5.976;2023-07-28T01:40:58;100360.59;;;17.72;100.00
66887;BME280;67239;51.680;5.976;2023-07-28T01:43:25;100355.28;;;17.72;100.00
66887;BME280;67239;51.680;5.976;2023-07-28T01:45:52;100350.78;;;17.72;100.00
66887;BME280;67239;51.680;5.976;2023-07-28T01:48:19;100358.69;;;17.74;100.00
66887;BME280;67239;51.680;5.976;2023-07-28T01:50:46;100362.97;;;17.76;100.00
66887;BME280;67239;51.680;5.976;2023-07-28T01:53:14;100363.59;;;17.80;100.00
66887;BME280;67239;51.680;5.976;2023-07-28T01:55:41;100360.94;;;17.80;100.00
66887;BME280;67239;51.680;5.976;2023-07-28T01:58:09;100362.63;;;17.81;100.00
66887;BME280;67239;51.680;5.976;2023-07-28T02:00:36;100365.31;;;17.81;100.00
66887;BME280;67239;51.680;5.976;2023-07-28T02:03:04;100358.16;;;17.81;100.00
66887;BME280;67239;51.680;5.976;2023-07-28T02:05:31;100354.75;;;17.79;100.00
66887;BME280;67239;51.680;5.976;2023-07-28T02:07:59;100352.94;;;17.80;100.00
66887;BME280;67239;51.680;5.976;2023-07-28T02:10:27;100347.59;;;17.80;100.00
66887;BME280;67239;51.680;5.976;2023-07-28T02:12:55;100349.50;;;17.78;100.00
66887;BME280;67239;51.680;5.976;2023-07-28T02:15:23;100346.84;;;17.78;100.00
66887;BME280;67239;51.680;5.976;2023-07-28T02:17:50;100349.63;;;17.76;100.00
66887;BME280;67239;51.680;5.976;2023-07-28T02:20:18;100357.63;;;17.76;100.00
66887;BME280;67239;51.680;5.976;2023-07-28T02:22:46;100354.19;;;17.74;100.00
66887;BME280;67239;51.680;5.976;2023-07-28T02:25:13;100355.16;;;17.73;100.00
66887;BME280;67239;51.680;5.976;2023-07-28T02:27:40;100354.19;;;17.74;100.00
66887;BME280;67239;51.680;5.976;2023-07-28T02:30:08;100351.53;;;17.74;100.00
66887;BME280;67239;51.680;5.976;2023-07-28T02:32:37;100355.06;;;17.75;100.00
66887;BME280;67239;51.680;5.976;2023-07-28T02:35:05;100351.66;;;17.73;100.00
66887;BME280;67239;51.680;5.976;2023-07-28T02:37:32;100346.41;;;17.71;100.00
66887;BME280;67239;51.680;5.976;2023-07-28T02:39:59;100353.56;;;17.70;100.00
66887;BME280;67239;51.680;5.976;2023-07-28T02:42:26;100353.69;;;17.69;100.00
66887;BME280;67239;51.680;5.976;2023-07-28T02:44:53;100355.47;;;17.68;100.00
66887;BME280;67239;51.680;5.976;2023-07-28T02:47:21;100357.19;;;17.69;100.00
66887;BME280;67239;51.680;5.976;2023-07-28T02:49:48;100365.06;;;17.71;100.00
66887;BME280;67239;51.680;5.976;2023-07-28T02:52:15;100361.56;;;17.70;100.00
66887;BME280;67239;51.680;5.976;2023-07-28T02:54:42;100366.78;;;17.72;100.00
66887;BME280;67239;51.680;5.976;2023-07-28T02:57:09;100374.69;;;17.74;100.00
66887;BME280;67239;51.680;5.976;2023-07-28T02:59:42;100376.41;;;17.75;100.00
66887;BME280;67239;51.680;5.976;2023-07-28T03:02:09;100374.56;;;17.75;100.00
66887;BME280;67239;51.680;5.976;2023-07-28T03:04:36;100375.66;;;17.73;100.00
66887;BME280;67239;51.680;5.976;2023-07-28T03:07:15;100380.03;;;17.74;100.00
66887;BME280;67239;51.680;5.976;2023-07-28T03:09:46;100387.16;;;17.73;100.00
66887;BME280;67239;51.680;5.976;2023-07-28T03:12:15;100387.16;;;17.73;100.00
66887;BME280;67239;51.680;5.976;2023-07-28T03:14:42;100380.84;;;17.74;100.00
66887;BME280;67239;51.680;5.976;2023-07-28T03:17:09;100385.34;;;17.74;100.00
66887;BME280;67239;51.680;5.976;2023-07-28T03:19:36;100384.47;;;17.73;100.00
66887;BME280;67239;51.680;5.976;2023-07-28T03:22:04;100380.97;;;17.73;100.00
66887;BME280;67239;51.680;5.976;2023-07-28T03:24:31;100376.47;;;17.73;100.00
66887;BME280;67239;51.680;5.976;2023-07-28T03:26:58;100381.94;;;17.72;100.00
66887;BME280;67239;51.680;5.976;2023-07-28T03:29:25;100376.59;;;17.72;100.00
66887;BME280;67239;51.680;5.976;2023-07-28T03:31:52;100380.22;;;17.70;100.00
66887;BME280;67239;51.680;5.976;2023-07-28T03:34:20;100366.88;;;17.70;100.00
66887;BME280;67239;51.680;5.976;2023-07-28T03:36:48;100369.34;;;17.74;100.00
66887;BME280;67239;51.680;5.976;2023-07-28T03:39:15;100370.19;;;17.74;100.00
66887;BME280;67239;51.680;5.976;2023-07-28T03:41:46;100372.88;;;17.74;100.00
66887;BME280;67239;51.680;5.976;2023-07-28T03:44:13;100383.53;;;17.74;100.00
66887;BME280;67239;51.680;5.976;2023-07-28T03:46:43;100397.81;;;17.73;100.00
66887;BME280;67239;51.680;5.976;2023-07-28T03:49:10;100391.72;;;17.71;100.00
66887;BME280;67239;51.680;5.976;2023-07-28T03:51:37;100396.97;;;17.73;100.00
66887;BME280;67239;51.680;5.976;2023-07-28T03:54:05;100399.63;;;17.73;100.00
66887;BME280;67239;51.680;5.976;2023-07-28T03:56:32;100394.19;;;17.74;100.00
66887;BME280;67239;51.680;5.976;2023-07-28T03:59:00;100397.72;;;17.75;100.00
66887;BME280;67239;51.680;5.976;2023-07-28T04:01:27;100395.06;;;17.75;100.00
66887;BME280;67239;51.680;5.976;2023-07-28T04:03:54;100403.78;;;17.77;100.00
66887;BME280;67239;51.680;5.976;2023-07-28T04:06:42;100402.81;;;17.78;100.00
66887;BME280;67239;51.680;5.976;2023-07-28T04:09:12;100406.25;;;17.80;100.00
66887;BME280;67239;51.680;5.976;2023-07-28T04:11:41;100402.81;;;17.78;100.00
66887;BME280;67239;51.680;5.976;2023-07-28T04:14:09;100401.88;;;17.79;100.00
66887;BME280;67239;51.680;5.976;2023-07-28T04:16:36;100401.78;;;17.80;100.00
66887;BME280;67239;51.680;5.976;2023-07-28T04:19:05;100408.91;;;17.80;100.00
66887;BME280;67239;51.680;5.976;2023-07-28T04:21:32;100410.44;;;17.84;100.00
66887;BME280;67239;51.680;5.976;2023-07-28T04:23:59;100405.19;;;17.82;100.00
66887;BME280;67239;51.680;5.976;2023-07-28T04:26:26;100413.19;;;17.82;100.00
66887;BME280;67239;51.680;5.976;2023-07-28T04:28:59;100418.44;;;17.84;100.00
66887;BME280;67239;51.680;5.976;2023-07-28T04:31:26;100419.28;;;17.84;100.00
66887;BME280;67239;51.680;5.976;2023-07-28T04:34:02;100421.09;;;17.84;100.00
66887;BME280;67239;51.680;5.976;2023-07-28T04:36:50;100420.03;;;17.87;100.00
66887;BME280;67239;51.680;5.976;2023-07-28T04:39:22;100415.66;;;17.85;100.00
66887;BME280;67239;51.680;5.976;2023-07-28T04:41:51;100411.91;;;17.88;100.00
66887;BME280;67239;51.680;5.976;2023-07-28T04:44:18;100408.28;;;17.89;100.00
66887;BME280;67239;51.680;5.976;2023-07-28T04:46:48;100419.81;;;17.90;100.00
66887;BME280;67239;51.680;5.976;2023-07-28T04:49:15;100430.50;;;17.90;100.00
66887;BME280;67239;51.680;5.976;2023-07-28T04:52:06;100423.13;;;17.93;100.00
66887;BME280;67239;51.680;5.976;2023-07-28T04:54:36;100424.84;;;17.94;100.00
66887;BME280;67239;51.680;5.976;2023-07-28T04:57:04;100419.41;;;17.96;100.00
66887;BME280;67239;51.680;5.976;2023-07-28T04:59:33;100421.13;;;17.97;100.00
66887;BME280;67239;51.680;5.976;2023-07-28T05:02:01;100419.22;;;17.99;100.00
66887;BME280;67239;51.680;5.976;2023-07-28T05:04:28;100414.63;;;18.01;100.00
66887;BME280;67239;51.680;5.976;2023-07-28T05:06:56;100416.00;;;18.07;100.00
66887;BME280;67239;51.680;5.976;2023-07-28T05:09:23;100412.94;;;18.13;100.00
66887;BME280;67239;51.680;5.976;2023-07-28T05:11:50;100418.91;;;18.16;100.00
66887;BME280;67239;51.680;5.976;2023-07-28T05:14:17;100415.41;;;18.16;100.00
66887;BME280;67239;51.680;5.976;2023-07-28T05:16:44;100418.81;;;18.18;100.00
66887;BME280;67239;51.680;5.976;2023-07-28T05:19:14;100426.81;;;18.18;100.00
66887;BME280;67239;51.680;5.976;2023-07-28T05:21:50;100426.72;;;18.20;100.00
66887;BME280;67239;51.680;5.976;2023-07-28T05:24:22;100434.59;;;18.21;100.00
66887;BME280;67239;51.680;5.976;2023-07-28T05:26:54;100450.50;;;18.23;100.00
66887;BME280;67239;51.680;5.976;2023-07-28T05:29:23;100452.31;;;18.22;100.00
66887;BME280;67239;51.680;5.976;2023-07-28T05:31:52;100453.06;;;18.24;100.00
66887;BME280;67239;51.680;5.976;2023-07-28T05:34:30;100455.81;;;18.23;100.00
66887;BME280;67239;51.680;5.976;2023-07-28T05:36:57;100462.03;;;18.23;100.00
66887;BME280;67239;51.680;5.976;2023-07-28T05:39:29;100457.44;;;18.25;100.00
66887;BME280;67239;51.680;5.976;2023-07-28T05:41:56;100456.38;;;18.28;100.00
66887;BME280;67239;51.680;5.976;2023-07-28T05:44:23;100465.34;;;18.27;100.00
66887;BME280;67239;51.680;5.976;2023-07-28T05:46:50;100467.91;;;18.28;100.00
66887;BME280;67239;51.680;5.976;2023-07-28T05:49:18;100477.41;;;18.33;100.00
66887;BME280;67239;51.680;5.976;2023-07-28T05:51:45;100473.56;;;18.37;100.00
66887;BME280;67239;51.680;5.976;2023-07-28T05:54:16;100481.28;;;18.41;100.00
66887;BME280;67239;51.680;5.976;2023-07-28T05:56:46;100482.88;;;18.44;100.00
66887;BME280;67239;51.680;5.976;2023-07-28T05:59:14;100478.28;;;18.46;100.00
66887;BME280;67239;51.680;5.976;2023-07-28T06:01:41;100482.53;;;18.49;100.00
66887;BME280;67239;51.680;5.976;2023-07-28T06:04:17;100487.75;;;18.50;100.00
66887;BME280;67239;51.680;5.976;2023-07-28T06:06:50;100489.28;;;18.54;100.00
66887;BME280;67239;51.680;5.976;2023-07-28T06:09:17;100486.38;;;18.57;100.00
66887;BME280;67239;51.680;5.976;2023-07-28T06:11:45;100486.38;;;18.57;100.00
66887;BME280;67239;51.680;5.976;2023-07-28T06:14:13;100495.25;;;18.58;100.00
66887;BME280;67239;51.680;5.976;2023-07-28T06:16:40;100489.78;;;18.59;100.00
66887;BME280;67239;51.680;5.976;2023-07-28T06:19:08;100485.19;;;18.61;100.00
66887;BME280;67239;51.680;5.976;2023-07-28T06:21:37;100487.66;;;18.65;100.00
66887;BME280;67239;51.680;5.976;2023-07-28T06:24:05;100483.91;;;18.67;100.00
66887;BME280;67239;51.680;5.976;2023-07-28T06:26:32;100486.47;;;18.69;100.00
66887;BME280;67239;51.680;5.976;2023-07-28T06:29:01;100487.44;;;18.68;100.00
66887;BME280;67239;51.680;5.976;2023-07-28T06:31:29;100493.63;;;18.68;100.00
66887;BME280;67239;51.680;5.976;2023-07-28T06:33:56;100492.34;;;18.74;100.00
66887;BME280;67239;51.680;5.976;2023-07-28T06:36:24;100498.34;;;18.77;100.00
66887;BME280;67239;51.680;5.976;2023-07-28T06:38:51;100498.00;;;18.82;100.00
66887;BME280;67239;51.680;5.976;2023-07-28T06:41:21;100502.06;;;18.88;100.00
66887;BME280;67239;51.680;5.976;2023-07-28T06:43:55;100501.75;;;18.92;100.00
66887;BME280;67239;51.680;5.976;2023-07-28T06:46:22;100501.44;;;18.97;100.00
66887;BME280;67239;51.680;5.976;2023-07-28T06:48:49;100503.56;;;19.05;100.00
66887;BME280;67239;51.680;5.976;2023-07-28T06:51:16;100504.72;;;19.14;100.00
66887;BME280;67239;51.680;5.976;2023-07-28T06:53:43;100510.38;;;19.22;100.00
66887;BME280;67239;51.680;5.976;2023-07-28T06:56:11;100510.69;;;19.30;100.00
66887;BME280;67239;51.680;5.976;2023-07-28T06:58:38;100510.22;;;19.36;100.00
66887;BME280;67239;51.680;5.976;2023-07-28T07:01:05;100509.66;;;19.44;100.00
66887;BME280;67239;51.680;5.976;2023-07-28T07:03:32;100518.19;;;19.49;100.00
66887;BME280;67239;51.680;5.976;2023-07-28T07:05:59;100523.19;;;19.54;100.00
66887;BME280;67239;51.680;5.976;2023-07-28T07:08:26;100515.19;;;19.54;100.00
66887;BME280;67239;51.680;5.976;2023-07-28T07:10:53;100515.09;;;19.55;100.00
66887;BME280;67239;51.680;5.976;2023-07-28T07:13:21;100522.97;;;19.57;100.00
66887;BME280;67239;51.680;5.976;2023-07-28T07:15:48;100528.75;;;19.64;100.00
66887;BME280;67239;51.680;5.976;2023-07-28T07:18:15;100531.91;;;19.69;100.00
66887;BME280;67239;51.680;5.976;2023-07-28T07:20:42;100533.53;;;19.71;100.00
66887;BME280;67239;51.680;5.976;2023-07-28T07:23:10;100528.53;;;19.67;100.00
66887;BME280;67239;51.680;5.976;2023-07-28T07:25:37;100544.44;;;19.68;100.00
66887;BME280;67239;51.680;5.976;2023-07-28T07:28:04;100542.38;;;19.72;100.00
66887;BME280;67239;51.680;5.976;2023-07-28T07:30:33;100546.56;;;19.76;100.00
66887;BME280;67239;51.680;5.976;2023-07-28T07:33:01;100541.84;;;19.80;100.00
66887;BME280;67239;51.680;5.976;2023-07-28T07:35:28;100545.25;;;19.82;100.00
66887;BME280;67239;51.680;5.976;2023-07-28T07:37:55;100547.94;;;19.82;100.00
66887;BME280;67239;51.680;5.976;2023-07-28T07:40:22;100551.44;;;19.82;100.00
66887;BME280;67239;51.680;5.976;2023-07-28T07:42:53;100558.38;;;19.85;100.00
66887;BME280;67239;51.680;5.976;2023-07-28T07:45:20;100558.19;;;19.88;100.00
66887;BME280;67239;51.680;5.976;2023-07-28T07:47:48;100554.34;;;19.92;100.00
66887;BME280;67239;51.680;5.976;2023-07-28T07:50:16;100560.31;;;19.96;100.00
66887;BME280;67239;51.680;5.976;2023-07-28T07:52:43;100559.84;;;20.02;100.00
66887;BME280;67239;51.680;5.976;2023-07-28T07:55:11;100556.81;;;20.07;100.00
66887;BME280;67239;51.680;5.976;2023-07-28T07:57:39;100563.53;;;20.12;100.00
66887;BME280;67239;51.680;5.976;2023-07-28T08:00:08;100562.97;;;20.20;100.00
66887;BME280;67239;51.680;5.976;2023-07-28T08:02:38;100557.13;;;20.26;99.67
66887;BME280;67239;51.680;5.976;2023-07-28T08:05:08;100563.00;;;20.31;99.46
66887;BME280;67239;51.680;5.976;2023-07-28T08:07:36;100559.09;;;20.36;99.73
66887;BME280;67239;51.680;5.976;2023-07-28T08:10:04;100559.50;;;20.42;98.45
66887;BME280;67239;51.680;5.976;2023-07-28T08:12:31;100566.69;;;20.42;97.54
66887;BME280;67239;51.680;5.976;2023-07-28T08:14:59;100567.78;;;20.39;97.54
66887;BME280;67239;51.680;5.976;2023-07-28T08:17:26;100572.63;;;20.34;96.49
66887;BME280;67239;51.680;5.976;2023-07-28T08:19:53;100574.81;;;20.29;96.61
66887;BME280;67239;51.680;5.976;2023-07-28T08:22:20;100575.16;;;20.24;96.85
66887;BME280;67239;51.680;5.976;2023-07-28T08:24:47;100575.78;;;20.28;97.37
66887;BME280;67239;51.680;5.976;2023-07-28T08:27:14;100578.84;;;20.35;97.71
66887;BME280;67239;51.680;5.976;2023-07-28T08:29:41;100579.31;;;20.40;98.20
66887;BME280;67239;51.680;5.976;2023-07-28T08:32:08;100578.13;;;20.44;97.75
66887;BME280;67239;51.680;5.976;2023-07-28T08:34:36;100586.44;;;20.52;97.02
66887;BME280;67239;51.680;5.976;2023-07-28T08:37:03;100580.38;;;20.61;96.30
66887;BME280;67239;51.680;5.976;2023-07-28T08:39:30;100585.22;;;20.68;96.60
66887;BME280;67239;51.680;5.976;2023-07-28T08:42:01;100594.00;;;20.70;96.96
66887;BME280;67239;51.680;5.976;2023-07-28T08:44:31;100595.47;;;20.62;96.41
66887;BME280;67239;51.680;5.976;2023-07-28T08:47:03;100602.88;;;20.59;96.02
66887;BME280;67239;51.680;5.976;2023-07-28T08:49:32;100607.28;;;20.60;94.28
66887;BME280;67239;51.680;5.976;2023-07-28T08:52:04;100607.88;;;20.63;96.04
66887;BME280;67239;51.680;5.976;2023-07-28T08:54:33;100607.81;;;20.76;95.68
66887;BME280;67239;51.680;5.976;2023-07-28T08:57:01;100606.75;;;20.90;94.52
66887;BME280;67239;51.680;5.976;2023-07-28T08:59:29;100608.94;;;21.08;94.38
66887;BME280;67239;51.680;5.976;2023-07-28T09:01:57;100605.69;;;21.16;93.97
66887;BME280;67239;51.680;5.976;2023-07-28T09:04:27;100613.59;;;21.17;94.49
66887;BME280;67239;51.680;5.976;2023-07-28T09:06:54;100612.00;;;21.26;93.11
66887;BME280;67239;51.680;5.976;2023-07-28T09:09:22;100617.88;;;21.31;90.93
66887;BME280;67239;51.680;5.976;2023-07-28T09:11:52;100611.78;;;21.40;91.41
66887;BME280;67239;51.680;5.976;2023-07-28T09:14:21;100619.09;;;21.50;89.76
66887;BME280;67239;51.680;5.976;2023-07-28T09:16:52;100617.84;;;21.54;89.80
66887;BME280;67239;51.680;5.976;2023-07-28T09:19:21;100615.69;;;21.59;89.50
66887;BME280;67239;51.680;5.976;2023-07-28T09:22:00;100609.59;;;21.68;88.57
66887;BME280;67239;51.680;5.976;2023-07-28T09:24:30;100608.59;;;21.81;88.94
66887;BME280;67239;51.680;5.976;2023-07-28T09:27:02;100608.28;;;21.95;88.73
66887;BME280;67239;51.680;5.976;2023-07-28T09:29:30;100616.19;;;22.08;88.51
66887;BME280;67239;51.680;5.976;2023-07-28T09:32:05;100616.66;;;22.13;87.72
66887;BME280;67239;51.680;5.976;2023-07-28T09:37:05;100616.41;;;22.16;86.21
66887;BME280;67239;51.680;5.976;2023-07-28T09:39:36;100614.69;;;22.27;86.79
66887;BME280;67239;51.680;5.976;2023-07-28T09:42:05;100620.50;;;22.32;86.31
66887;BME280;67239;51.680;5.976;2023-07-28T09:44:35;100618.69;;;22.32;84.78
66887;BME280;67239;51.680;5.976;2023-07-28T09:47:03;100628.56;;;22.32;85.12
66887;BME280;67239;51.680;5.976;2023-07-28T09:49:36;100619.78;;;22.30;85.49
66887;BME280;67239;51.680;5.976;2023-07-28T09:52:09;100621.63;;;22.29;86.79
66887;BME280;67239;51.680;5.976;2023-07-28T09:54:41;100617.94;;;22.30;87.20
66887;BME280;67239;51.680;5.976;2023-07-28T09:57:14;100619.06;;;22.28;83.64
66887;BME280;67239;51.680;5.976;2023-07-28T09:59:47;100617.50;;;22.14;84.70
66887;BME280;67239;51.680;5.976;2023-07-28T10:02:15;100623.59;;;22.16;84.65
66887;BME280;67239;51.680;5.976;2023-07-28T10:04:43;100623.41;;;22.40;85.97
66887;BME280;67239;51.680;5.976;2023-07-28T10:07:11;100627.47;;;22.67;86.51
66887;BME280;67239;51.680;5.976;2023-07-28T10:09:39;100630.66;;;22.82;85.27
66887;BME280;67239;51.680;5.976;2023-07-28T10:12:17;100632.50;;;22.82;83.89
66887;BME280;67239;51.680;5.976;2023-07-28T10:14:46;100635.31;;;22.80;84.38
66887;BME280;67239;51.680;5.976;2023-07-28T10:17:16;100630.19;;;22.77;82.57
66887;BME280;67239;51.680;5.976;2023-07-28T10:19:44;100628.63;;;22.74;83.00
66887;BME280;67239;51.680;5.976;2023-07-28T10:22:11;100629.47;;;22.75;83.06
66887;BME280;67239;51.680;5.976;2023-07-28T10:25:01;100636.88;;;22.83;83.08
66887;BME280;67239;51.680;5.976;2023-07-28T10:27:36;100631.75;;;22.79;83.99
66887;BME280;67239;51.680;5.976;2023-07-28T10:30:12;100638.16;;;22.78;82.74
66887;BME280;67239;51.680;5.976;2023-07-28T10:32:42;100634.59;;;22.78;82.50
66887;BME280;67239;51.680;5.976;2023-07-28T10:37:45;100633.97;;;23.17;81.33
66887;BME280;67239;51.680;5.976;2023-07-28T10:40:32;100629.88;;;23.44;81.18
66887;BME280;67239;51.680;5.976;2023-07-28T10:43:03;100634.06;;;23.67;80.88
66887;BME280;67239;51.680;5.976;2023-07-28T10:45:32;100629.00;;;23.84;81.02
66887;BME280;67239;51.680;5.976;2023-07-28T10:47:59;100640.22;;;23.89;77.86
66887;BME280;67239;51.680;5.976;2023-07-28T10:50:31;100634.22;;;23.76;77.83
66887;BME280;67239;51.680;5.976;2023-07-28T10:52:59;100629.50;;;23.58;77.48
66887;BME280;67239;51.680;5.976;2023-07-28T10:55:27;100636.41;;;23.51;78.29
66887;BME280;67239;51.680;5.976;2023-07-28T10:57:55;100625.28;;;23.65;79.41
66887;BME280;67239;51.680;5.976;2023-07-28T11:00:25;100627.50;;;24.01;79.20
66887;BME280;67239;51.680;5.976;2023-07-28T11:02:53;100629.38;;;24.49;78.39
66887;BME280;67239;51.680;5.976;2023-07-28T11:05:28;100628.09;;;24.73;76.37
66887;BME280;67239;51.680;5.976;2023-07-28T11:07:58;100632.34;;;24.86;72.94
66887;BME280;67239;51.680;5.976;2023-07-28T11:10:31;100627.09;;;24.84;74.67
66887;BME280;67239;51.680;5.976;2023-07-28T11:13:02;100628.94;;;24.84;73.16
66887;BME280;67239;51.680;5.976;2023-07-28T11:15:50;100622.84;;;24.81;73.19
66887;BME280;67239;51.680;5.976;2023-07-28T11:18:18;100617.06;;;24.76;73.93
66887;BME280;67239;51.680;5.976;2023-07-28T11:20:45;100620.44;;;24.78;73.76
66887;BME280;67239;51.680;5.976;2023-07-28T11:23:14;100630.22;;;24.89;70.85
66887;BME280;67239;51.680;5.976;2023-07-28T11:25:41;100619.88;;;24.85;70.63
66887;BME280;67239;51.680;5.976;2023-07-28T11:28:09;100620.75;;;24.75;71.81
66887;BME280;67239;51.680;5.976;2023-07-28T11:30:37;100625.81;;;24.78;70.95
66887;BME280;67239;51.680;5.976;2023-07-28T11:33:08;100614.47;;;24.75;71.14
66887;BME280;67239;51.680;5.976;2023-07-28T11:35:38;100619.03;;;24.74;72.26
66887;BME280;67239;51.680;5.976;2023-07-28T11:38:08;100619.59;;;24.78;72.32
66887;BME280;67239;51.680;5.976;2023-07-28T11:40:37;100614.88;;;24.90;72.67
66887;BME280;67239;51.680;5.976;2023-07-28T11:43:05;100619.69;;;24.96;70.23
66887;BME280;67239;51.680;5.976;2023-07-28T11:45:38;100622.09;;;24.99;71.22
66887;BME280;67239;51.680;5.976;2023-07-28T11:48:06;100613.97;;;25.09;69.69
66887;BME280;67239;51.680;5.976;2023-07-28T11:50:39;100617.81;;;25.06;69.45
66887;BME280;67239;51.680;5.976;2023-07-28T11:53:09;100621.06;;;25.10;68.72
66887;BME280;67239;51.680;5.976;2023-07-28T11:55:39;100616.63;;;25.19;67.15
66887;BME280;67239;51.680;5.976;2023-07-28T11:58:07;100615.44;;;25.31;67.31
66887;BME280;67239;51.680;5.976;2023-07-28T12:00:36;100608.09;;;25.61;67.24
66887;BME280;67239;51.680;5.976;2023-07-28T12:03:06;100607.22;;;25.88;66.34
66887;BME280;67239;51.680;5.976;2023-07-28T12:05:42;100610.41;;;26.02;64.46
66887;BME280;67239;51.680;5.976;2023-07-28T12:08:37;100605.63;;;25.68;66.01
66887;BME280;67239;51.680;5.976;2023-07-28T12:11:05;100607.78;;;25.36;66.99
66887;BME280;67239;51.680;5.976;2023-07-28T12:13:51;100609.69;;;25.16;67.62
66887;BME280;67239;51.680;5.976;2023-07-28T12:16:41;100617.44;;;25.29;66.69
66887;BME280;67239;51.680;5.976;2023-07-28T12:19:17;100622.75;;;25.58;66.16
66887;BME280;67239;51.680;5.976;2023-07-28T12:21:44;100611.22;;;25.84;66.48
66887;BME280;67239;51.680;5.976;2023-07-28T12:24:12;100613.81;;;25.76;65.15
66887;BME280;67239;51.680;5.976;2023-07-28T12:26:39;100610.66;;;25.63;65.18
66887;BME280;67239;51.680;5.976;2023-07-28T12:29:07;100611.75;;;25.70;65.07
66887;BME280;67239;51.680;5.976;2023-07-28T12:31:38;100608.78;;;25.63;65.00
66887;BME280;67239;51.680;5.976;2023-07-28T12:34:08;100610.59;;;25.45;65.87
66887;BME280;67239;51.680;5.976;2023-07-28T12:36:36;100615.44;;;25.31;64.45
66887;BME280;67239;51.680;5.976;2023-07-28T12:39:06;100617.66;;;25.08;64.95
66887;BME280;67239;51.680;5.976;2023-07-28T12:41:37;100625.78;;;24.98;66.61
66887;BME280;67239;51.680;5.976;2023-07-28T12:44:10;100615.97;;;25.07;66.20
66887;BME280;67239;51.680;5.976;2023-07-28T12:46:42;100625.38;;;25.03;67.14
66887;BME280;67239;51.680;5.976;2023-07-28T12:49:09;100616.00;;;25.45;68.17
66887;BME280;67239;51.680;5.976;2023-07-28T12:51:47;100620.56;;;25.90;66.31
66887;BME280;67239;51.680;5.976;2023-07-28T12:54:17;100624.72;;;26.12;65.90
66887;BME280;67239;51.680;5.976;2023-07-28T12:56:46;100622.75;;;26.41;64.52
66887;BME280;67239;51.680;5.976;2023-07-28T12:59:14;100632.44;;;26.43;64.71